sensor_id;sensor_type;location;lat;lon;timestamp;P1;durP1;ratioP1;P2;durP2;ratioP2
18883;SDS011;9574;47.282;9.640;2023-04-30T00:01:25;3.60;;;2.63;;
18883;SDS011;9574;47.282;9.640;2023-04-30T00:03:54;2.83;;;2.57;;
18883;SDS011;9574;47.282;9.640;2023-04-30T00:06:21;3.37;;;2.60;;
18883;SDS011;9574;47.282;9.640;2023-04-30T00:08:48;3.40;;;2.53;;
18883;SDS011;9574;47.282;9.640;2023-04-30T00:11:15;2.50;;;2.30;;
18883;SDS011;9574;47.282;9.640;2023-04-30T00:13:42;2.67;;;2.27;;
18883;SDS011;9574;47.282;9.640;2023-04-30T00:16:09;6.90;;;2.50;;
18883;SDS011;9574;47.282;9.640;2023-04-30T00:18:36;2.90;;;2.50;;
18883;SDS011;9574;47.282;9.640;2023-04-30T00:21:04;3.43;;;2.70;;
18883;SDS011;9574;47.282;9.640;2023-04-30T00:23:31;3.53;;;2.50;;
18883;SDS011;9574;47.282;9.640;2023-04-30T00:25:58;2.63;;;2.13;;
18883;SDS011;9574;47.282;9.640;2023-04-30T00:28:25;3.53;;;2.23;;
18883;SDS011;9574;47.282;9.640;2023-04-30T00:30:52;2.63;;;2.10;;
18883;SDS011;9574;47.282;9.640;2023-04-30T00:33:19;2.30;;;2.10;;
18883;SDS011;9574;47.282;9.640;2023-04-30T00:35:46;3.70;;;2.17;;
18883;SDS011;9574;47.282;9.640;2023-04-30T00:38:15;3.40;;;2.20;;
18883;SDS011;9574;47.282;9.640;2023-04-30T00:40:42;2.37;;;1.90;;
18883;SDS011;9574;47.282;9.640;2023-04-30T00:43:09;3.13;;;1.60;;
18883;SDS011;9574;47.282;9.640;2023-04-30T00:45:36;3.63;;;1.97;;
18883;SDS011;9574;47.282;9.640;2023-04-30T00:48:03;4.90;;;1.90;;
18883;SDS011;9574;47.282;9.640;2023-04-30T00:50:31;2.00;;;1.80;;
18883;SDS011;9574;47.282;9.640;2023-04-30T00:53:00;3.43;;;1.80;;
18883;SDS011;9574;47.282;9.640;2023-04-30T00:55:29;3.20;;;1.70;;
18883;SDS011;9574;47.282;9.640;2023-04-30T00:57:57;2.33;;;1.80;;
18883;SDS011;9574;47.282;9.640;2023-04-30T01:00:25;2.37;;;1.60;;
18883;SDS011;9574;47.282;9.640;2023-04-30T01:02:52;2.47;;;1.83;;
18883;SDS011;9574;47.282;9.640;2023-04-30T01:05:20;2.20;;;2.00;;
18883;SDS011;9574;47.282;9.640;2023-04-30T01:07:47;2.53;;;2.00;;
18883;SDS011;9574;47.282;9.640;2023-04-30T01:10:15;1.90;;;1.80;;
18883;SDS011;9574;47.282;9.640;2023-04-30T01:12:45;2.43;;;1.90;;
18883;SDS011;9574;47.282;9.640;2023-04-30T01:15:18;2.00;;;1.80;;
18883;SDS011;9574;47.282;9.640;2023-04-30T01:17:53;2.33;;;1.80;;
18883;SDS011;9574;47.282;9.640;2023-04-30T01:20:25;4.30;;;1.93;;
18883;SDS011;9574;47.282;9.640;2023-04-30T01:22:54;1.87;;;1.73;;
18883;SDS011;9574;47.282;9.640;2023-04-30T01:25:50;4.23;;;1.97;;
18883;SDS011;9574;47.282;9.640;2023-04-30T01:28:27;2.93;;;2.10;;
18883;SDS011;9574;47.282;9.640;2023-04-30T01:30:54;5.30;;;2.20;;
18883;SDS011;9574;47.282;9.640;2023-04-30T01:33:21;2.63;;;2.20;;
18883;SDS011;9574;47.282;9.640;2023-04-30T01:38:48;2.60;;;2.37;;
18883;SDS011;9574;47.282;9.640;2023-04-30T01:41:27;2.30;;;2.10;;
18883;SDS011;9574;47.282;9.640;2023-04-30T01:44:02;3.20;;;2.90;;
18883;SDS011;9574;47.282;9.640;2023-04-30T01:46:38;5.27;;;3.20;;
18883;SDS011;9574;47.282;9.640;2023-04-30T01:49:11;3.70;;;2.70;;
18883;SDS011;9574;47.282;9.640;2023-04-30T01:51:45;3.93;;;3.10;;
18883;SDS011;9574;47.282;9.640;2023-04-30T01:54:18;3.87;;;3.47;;
18883;SDS011;9574;47.282;9.640;2023-04-30T01:56:52;5.00;;;3.17;;
18883;SDS011;9574;47.282;9.640;2023-04-30T01:59:29;5.53;;;3.33;;
18883;SDS011;9574;47.282;9.640;2023-04-30T02:01:58;4.53;;;3.07;;
18883;SDS011;9574;47.282;9.640;2023-04-30T02:04:25;4.40;;;3.37;;
18883;SDS011;9574;47.282;9.640;2023-04-30T02:06:52;3.90;;;3.47;;
18883;SDS011;9574;47.282;9.640;2023-04-30T02:09:19;3.80;;;3.07;;
18883;SDS011;9574;47.282;9.640;2023-04-30T02:11:48;4.37;;;2.90;;
18883;SDS011;9574;47.282;9.640;2023-04-30T02:14:15;3.27;;;2.60;;
18883;SDS011;9574;47.282;9.640;2023-04-30T02:16:43;3.27;;;2.90;;
18883;SDS011;9574;47.282;9.640;2023-04-30T02:19:10;4.60;;;2.87;;
18883;SDS011;9574;47.282;9.640;2023-04-30T02:21:37;5.57;;;2.70;;
18883;SDS011;9574;47.282;9.640;2023-04-30T02:24:04;6.10;;;2.83;;
18883;SDS011;9574;47.282;9.640;2023-04-30T02:26:32;3.53;;;2.80;;
18883;SDS011;9574;47.282;9.640;2023-04-30T02:28:59;3.63;;;3.13;;
18883;SDS011;9574;47.282;9.640;2023-04-30T02:31:26;4.37;;;3.50;;
18883;SDS011;9574;47.282;9.640;2023-04-30T02:33:54;4.03;;;3.03;;
18883;SDS011;9574;47.282;9.640;2023-04-30T02:36:21;4.77;;;3.90;;
18883;SDS011;9574;47.282;9.640;2023-04-30T02:38:48;5.00;;;3.00;;
18883;SDS011;9574;47.282;9.640;2023-04-30T02:41:15;4.87;;;3.40;;
18883;SDS011;9574;47.282;9.640;2023-04-30T02:43:42;5.37;;;4.03;;
18883;SDS011;9574;47.282;9.640;2023-04-30T02:46:08;4.57;;;3.63;;
18883;SDS011;9574;47.282;9.640;2023-04-30T02:48:35;4.43;;;3.73;;
18883;SDS011;9574;47.282;9.640;2023-04-30T02:51:04;8.60;;;4.57;;
18883;SDS011;9574;47.282;9.640;2023-04-30T02:53:31;5.77;;;3.73;;
18883;SDS011;9574;47.282;9.640;2023-04-30T02:55:58;4.67;;;3.27;;
18883;SDS011;9574;47.282;9.640;2023-04-30T02:58:25;4.47;;;3.33;;
18883;SDS011;9574;47.282;9.640;2023-04-30T03:00:52;7.10;;;3.50;;
18883;SDS011;9574;47.282;9.640;2023-04-30T03:03:20;4.23;;;3.00;;
18883;SDS011;9574;47.282;9.640;2023-04-30T03:05:47;3.30;;;2.83;;
18883;SDS011;9574;47.282;9.640;2023-04-30T03:08:15;5.13;;;3.20;;
18883;SDS011;9574;47.282;9.640;2023-04-30T03:10:42;3.83;;;2.33;;
18883;SDS011;9574;47.282;9.640;2023-04-30T03:13:09;2.50;;;2.30;;
18883;SDS011;9574;47.282;9.640;2023-04-30T03:15:36;2.77;;;2.47;;
18883;SDS011;9574;47.282;9.640;2023-04-30T03:18:03;3.27;;;2.30;;
18883;SDS011;9574;47.282;9.640;2023-04-30T03:20:30;2.90;;;2.50;;
18883;SDS011;9574;47.282;9.640;2023-04-30T03:22:57;3.43;;;2.83;;
18883;SDS011;9574;47.282;9.640;2023-04-30T03:25:25;2.53;;;2.30;;
18883;SDS011;9574;47.282;9.640;2023-04-30T03:27:52;5.00;;;2.60;;
18883;SDS011;9574;47.282;9.640;2023-04-30T03:30:19;5.93;;;2.67;;
18883;SDS011;9574;47.282;9.640;2023-04-30T03:32:46;6.10;;;3.30;;
18883;SDS011;9574;47.282;9.640;2023-04-30T03:35:13;8.27;;;3.83;;
18883;SDS011;9574;47.282;9.640;2023-04-30T03:37:40;7.47;;;4.17;;
18883;SDS011;9574;47.282;9.640;2023-04-30T03:40:08;4.90;;;3.47;;
18883;SDS011;9574;47.282;9.640;2023-04-30T03:42:37;6.10;;;3.80;;
18883;SDS011;9574;47.282;9.640;2023-04-30T03:45:04;4.60;;;3.67;;
18883;SDS011;9574;47.282;9.640;2023-04-30T03:47:32;4.30;;;3.20;;
18883;SDS011;9574;47.282;9.640;2023-04-30T03:49:59;8.57;;;4.10;;
18883;SDS011;9574;47.282;9.640;2023-04-30T03:52:26;3.97;;;3.00;;
18883;SDS011;9574;47.282;9.640;2023-04-30T03:54:53;3.73;;;2.90;;
18883;SDS011;9574;47.282;9.640;2023-04-30T03:57:20;3.27;;;2.63;;
18883;SDS011;9574;47.282;9.640;2023-04-30T03:59:48;4.17;;;2.57;;
18883;SDS011;9574;47.282;9.640;2023-04-30T04:02:15;4.47;;;3.17;;
18883;SDS011;9574;47.282;9.640;2023-04-30T04:04:42;4.07;;;2.93;;
18883;SDS011;9574;47.282;9.640;2023-04-30T04:07:09;5.47;;;3.30;;
18883;SDS011;9574;47.282;9.640;2023-04-30T04:09:37;5.53;;;3.93;;
18883;SDS011;9574;47.282;9.640;2023-04-30T04:12:04;6.53;;;4.90;;
18883;SDS011;9574;47.282;9.640;2023-04-30T04:14:31;7.13;;;4.97;;
18883;SDS011;9574;47.282;9.640;2023-04-30T04:17:00;7.43;;;5.07;;
18883;SDS011;9574;47.282;9.640;2023-04-30T04:19:29;8.30;;;5.43;;
18883;SDS011;9574;47.282;9.640;2023-04-30T04:21:56;8.90;;;5.63;;
18883;SDS011;9574;47.282;9.640;2023-04-30T04:24:23;8.63;;;5.53;;
18883;SDS011;9574;47.282;9.640;2023-04-30T04:26:50;7.20;;;5.13;;
18883;SDS011;9574;47.282;9.640;2023-04-30T04:29:17;8.33;;;5.77;;
18883;SDS011;9574;47.282;9.640;2023-04-30T04:31:44;6.73;;;5.23;;
18883;SDS011;9574;47.282;9.640;2023-04-30T04:34:14;9.47;;;6.00;;
18883;SDS011;9574;47.282;9.640;2023-04-30T04:36:41;9.07;;;5.70;;
18883;SDS011;9574;47.282;9.640;2023-04-30T04:39:08;8.00;;;5.17;;
18883;SDS011;9574;47.282;9.640;2023-04-30T04:41:35;7.47;;;4.47;;
18883;SDS011;9574;47.282;9.640;2023-04-30T04:44:03;8.47;;;5.07;;
18883;SDS011;9574;47.282;9.640;2023-04-30T04:46:30;8.10;;;5.10;;
18883;SDS011;9574;47.282;9.640;2023-04-30T04:48:57;7.80;;;5.33;;
18883;SDS011;9574;47.282;9.640;2023-04-30T04:51:26;6.83;;;5.13;;
18883;SDS011;9574;47.282;9.640;2023-04-30T04:53:53;9.23;;;6.03;;
18883;SDS011;9574;47.282;9.640;2023-04-30T04:56:19;8.80;;;5.90;;
18883;SDS011;9574;47.282;9.640;2023-04-30T04:58:46;11.87;;;5.53;;
18883;SDS011;9574;47.282;9.640;2023-04-30T05:01:13;21.63;;;6.60;;
18883;SDS011;9574;47.282;9.640;2023-04-30T05:03:40;7.20;;;5.23;;
18883;SDS011;9574;47.282;9.640;2023-04-30T05:06:07;7.47;;;4.93;;
18883;SDS011;9574;47.282;9.640;2023-04-30T05:08:36;9.67;;;5.43;;
18883;SDS011;9574;47.282;9.640;2023-04-30T05:11:03;8.43;;;5.90;;
18883;SDS011;9574;47.282;9.640;2023-04-30T05:13:30;7.60;;;5.33;;
18883;SDS011;9574;47.282;9.640;2023-04-30T05:15:57;7.77;;;5.17;;
18883;SDS011;9574;47.282;9.640;2023-04-30T05:18:23;6.03;;;4.53;;
18883;SDS011;9574;47.282;9.640;2023-04-30T05:20:50;7.10;;;4.70;;
18883;SDS011;9574;47.282;9.640;2023-04-30T05:23:17;5.97;;;4.47;;
18883;SDS011;9574;47.282;9.640;2023-04-30T05:25:46;5.00;;;3.80;;
18883;SDS011;9574;47.282;9.640;2023-04-30T05:28:17;7.87;;;4.37;;
18883;SDS011;9574;47.282;9.640;2023-04-30T05:30:44;8.20;;;4.37;;
18883;SDS011;9574;47.282;9.640;2023-04-30T05:33:11;7.37;;;4.80;;
18883;SDS011;9574;47.282;9.640;2023-04-30T05:35:38;7.83;;;4.90;;
18883;SDS011;9574;47.282;9.640;2023-04-30T05:38:05;6.83;;;4.67;;
18883;SDS011;9574;47.282;9.640;2023-04-30T05:40:32;5.00;;;4.20;;
18883;SDS011;9574;47.282;9.640;2023-04-30T05:43:00;8.60;;;4.37;;
18883;SDS011;9574;47.282;9.640;2023-04-30T05:45:27;8.00;;;5.20;;
18883;SDS011;9574;47.282;9.640;2023-04-30T05:47:54;7.90;;;4.93;;
18883;SDS011;9574;47.282;9.640;2023-04-30T05:50:21;5.70;;;4.60;;
18883;SDS011;9574;47.282;9.640;2023-04-30T05:52:48;6.60;;;5.27;;
18883;SDS011;9574;47.282;9.640;2023-04-30T05:55:15;8.60;;;5.87;;
18883;SDS011;9574;47.282;9.640;2023-04-30T05:57:42;8.90;;;5.90;;
18883;SDS011;9574;47.282;9.640;2023-04-30T06:00:11;6.23;;;4.63;;
18883;SDS011;9574;47.282;9.640;2023-04-30T06:02:39;10.77;;;5.30;;
18883;SDS011;9574;47.282;9.640;2023-04-30T06:05:07;7.30;;;4.57;;
18883;SDS011;9574;47.282;9.640;2023-04-30T06:07:34;6.53;;;4.80;;
18883;SDS011;9574;47.282;9.640;2023-04-30T06:10:01;5.80;;;4.43;;
18883;SDS011;9574;47.282;9.640;2023-04-30T06:12:29;7.30;;;4.73;;
18883;SDS011;9574;47.282;9.640;2023-04-30T06:14:56;7.70;;;4.90;;
18883;SDS011;9574;47.282;9.640;2023-04-30T06:17:25;7.37;;;4.47;;
18883;SDS011;9574;47.282;9.640;2023-04-30T06:19:52;6.87;;;4.47;;
18883;SDS011;9574;47.282;9.640;2023-04-30T06:22:19;7.93;;;5.23;;
18883;SDS011;9574;47.282;9.640;2023-04-30T06:24:46;6.63;;;4.20;;
18883;SDS011;9574;47.282;9.640;2023-04-30T06:27:12;8.73;;;4.80;;
18883;SDS011;9574;47.282;9.640;2023-04-30T06:29:39;7.97;;;4.90;;
18883;SDS011;9574;47.282;9.640;2023-04-30T06:32:06;10.20;;;4.97;;
18883;SDS011;9574;47.282;9.640;2023-04-30T06:34:35;6.87;;;4.60;;
18883;SDS011;9574;47.282;9.640;2023-04-30T06:37:02;6.20;;;4.37;;
18883;SDS011;9574;47.282;9.640;2023-04-30T06:39:29;8.60;;;4.63;;
18883;SDS011;9574;47.282;9.640;2023-04-30T06:41:56;6.60;;;4.23;;
18883;SDS011;9574;47.282;9.640;2023-04-30T06:44:23;8.97;;;5.50;;
18883;SDS011;9574;47.282;9.640;2023-04-30T06:46:50;8.33;;;5.10;;
18883;SDS011;9574;47.282;9.640;2023-04-30T06:49:18;6.73;;;5.00;;
18883;SDS011;9574;47.282;9.640;2023-04-30T06:51:46;9.07;;;5.20;;
18883;SDS011;9574;47.282;9.640;2023-04-30T06:54:13;6.87;;;4.67;;
18883;SDS011;9574;47.282;9.640;2023-04-30T06:56:40;7.00;;;5.17;;
18883;SDS011;9574;47.282;9.640;2023-04-30T06:59:08;7.53;;;5.03;;
18883;SDS011;9574;47.282;9.640;2023-04-30T07:01:34;6.83;;;4.17;;
18883;SDS011;9574;47.282;9.640;2023-04-30T07:04:01;6.10;;;4.30;;
18883;SDS011;9574;47.282;9.640;2023-04-30T07:06:28;6.83;;;4.50;;
18883;SDS011;9574;47.282;9.640;2023-04-30T07:08:57;7.47;;;4.10;;
18883;SDS011;9574;47.282;9.640;2023-04-30T07:11:24;6.53;;;4.30;;
18883;SDS011;9574;47.282;9.640;2023-04-30T07:13:51;5.33;;;4.27;;
18883;SDS011;9574;47.282;9.640;2023-04-30T07:16:18;6.40;;;4.10;;
18883;SDS011;9574;47.282;9.640;2023-04-30T07:18:45;9.23;;;4.43;;
18883;SDS011;9574;47.282;9.640;2023-04-30T07:21:13;5.43;;;3.93;;
18883;SDS011;9574;47.282;9.640;2023-04-30T07:23:40;5.13;;;3.70;;
18883;SDS011;9574;47.282;9.640;2023-04-30T07:26:09;5.07;;;3.67;;
18883;SDS011;9574;47.282;9.640;2023-04-30T07:28:36;4.67;;;3.40;;
18883;SDS011;9574;47.282;9.640;2023-04-30T07:31:03;5.10;;;3.40;;
18883;SDS011;9574;47.282;9.640;2023-04-30T07:33:31;5.33;;;3.13;;
18883;SDS011;9574;47.282;9.640;2023-04-30T07:35:58;6.80;;;3.93;;
18883;SDS011;9574;47.282;9.640;2023-04-30T07:38:25;4.90;;;3.87;;
18883;SDS011;9574;47.282;9.640;2023-04-30T07:40:53;4.60;;;3.47;;
18883;SDS011;9574;47.282;9.640;2023-04-30T07:43:21;5.73;;;3.83;;
18883;SDS011;9574;47.282;9.640;2023-04-30T07:45:48;5.87;;;3.93;;
18883;SDS011;9574;47.282;9.640;2023-04-30T07:48:17;9.43;;;4.10;;
18883;SDS011;9574;47.282;9.640;2023-04-30T07:50:46;7.60;;;4.10;;
18883;SDS011;9574;47.282;9.640;2023-04-30T07:53:13;5.60;;;3.87;;
18883;SDS011;9574;47.282;9.640;2023-04-30T07:55:40;5.23;;;3.67;;
18883;SDS011;9574;47.282;9.640;2023-04-30T07:58:07;5.97;;;3.90;;
18883;SDS011;9574;47.282;9.640;2023-04-30T08:00:35;5.27;;;3.77;;
18883;SDS011;9574;47.282;9.640;2023-04-30T08:03:02;6.47;;;4.20;;
18883;SDS011;9574;47.282;9.640;2023-04-30T08:05:29;5.73;;;3.70;;
18883;SDS011;9574;47.282;9.640;2023-04-30T08:07:56;5.77;;;4.10;;
18883;SDS011;9574;47.282;9.640;2023-04-30T08:10:23;7.37;;;4.27;;
18883;SDS011;9574;47.282;9.640;2023-04-30T08:12:50;7.90;;;3.97;;
18883;SDS011;9574;47.282;9.640;2023-04-30T08:15:18;5.77;;;3.80;;
18883;SDS011;9574;47.282;9.640;2023-04-30T08:17:47;4.13;;;3.70;;
18883;SDS011;9574;47.282;9.640;2023-04-30T08:20:15;6.47;;;4.17;;
18883;SDS011;9574;47.282;9.640;2023-04-30T08:22:42;9.17;;;4.40;;
18883;SDS011;9574;47.282;9.640;2023-04-30T08:25:09;5.63;;;3.50;;
18883;SDS011;9574;47.282;9.640;2023-04-30T08:27:36;4.13;;;3.07;;
18883;SDS011;9574;47.282;9.640;2023-04-30T08:30:04;4.22;;;3.60;;
18883;SDS011;9574;47.282;9.640;2023-04-30T08:32:32;6.13;;;3.47;;
18883;SDS011;9574;47.282;9.640;2023-04-30T08:35:02;6.70;;;3.40;;
18883;SDS011;9574;47.282;9.640;2023-04-30T08:37:29;5.03;;;3.58;;
18883;SDS011;9574;47.282;9.640;2023-04-30T08:39:56;5.43;;;3.67;;
18883;SDS011;9574;47.282;9.640;2023-04-30T08:42:24;5.53;;;3.40;;
18883;SDS011;9574;47.282;9.640;2023-04-30T08:44:55;3.53;;;3.03;;
18883;SDS011;9574;47.282;9.640;2023-04-30T08:47:22;4.60;;;3.37;;
18883;SDS011;9574;47.282;9.640;2023-04-30T08:49:50;5.17;;;3.20;;
18883;SDS011;9574;47.282;9.640;2023-04-30T08:52:18;5.07;;;2.97;;
18883;SDS011;9574;47.282;9.640;2023-04-30T08:54:46;5.07;;;3.30;;
18883;SDS011;9574;47.282;9.640;2023-04-30T08:57:13;3.67;;;2.63;;
18883;SDS011;9574;47.282;9.640;2023-04-30T08:59:43;2.70;;;2.27;;
18883;SDS011;9574;47.282;9.640;2023-04-30T09:02:10;4.00;;;2.97;;
18883;SDS011;9574;47.282;9.640;2023-04-30T09:04:37;3.60;;;2.83;;
18883;SDS011;9574;47.282;9.640;2023-04-30T09:07:04;4.10;;;3.10;;
18883;SDS011;9574;47.282;9.640;2023-04-30T09:09:37;3.07;;;2.70;;
18883;SDS011;9574;47.282;9.640;2023-04-30T09:12:11;5.70;;;2.50;;
18883;SDS011;9574;47.282;9.640;2023-04-30T09:14:39;5.43;;;3.43;;
18883;SDS011;9574;47.282;9.640;2023-04-30T09:17:06;4.40;;;3.30;;
18883;SDS011;9574;47.282;9.640;2023-04-30T09:19:34;3.72;;;3.10;;
18883;SDS011;9574;47.282;9.640;2023-04-30T09:22:17;6.13;;;3.63;;
18883;SDS011;9574;47.282;9.640;2023-04-30T09:24:47;4.35;;;3.10;;
18883;SDS011;9574;47.282;9.640;2023-04-30T09:27:17;4.30;;;3.03;;
18883;SDS011;9574;47.282;9.640;2023-04-30T09:29:46;5.32;;;3.47;;
18883;SDS011;9574;47.282;9.640;2023-04-30T09:32:13;4.07;;;2.88;;
18883;SDS011;9574;47.282;9.640;2023-04-30T09:34:40;4.05;;;2.80;;
18883;SDS011;9574;47.282;9.640;2023-04-30T09:37:07;4.30;;;3.30;;
18883;SDS011;9574;47.282;9.640;2023-04-30T09:39:46;4.10;;;2.90;;
18883;SDS011;9574;47.282;9.640;2023-04-30T09:42:14;5.03;;;3.13;;
18883;SDS011;9574;47.282;9.640;2023-04-30T09:44:42;3.33;;;2.83;;
18883;SDS011;9574;47.282;9.640;2023-04-30T09:47:10;3.50;;;3.15;;
18883;SDS011;9574;47.282;9.640;2023-04-30T09:49:39;4.78;;;3.33;;
18883;SDS011;9574;47.282;9.640;2023-04-30T09:52:07;4.18;;;3.03;;
18883;SDS011;9574;47.282;9.640;2023-04-30T09:54:35;3.88;;;3.00;;
18883;SDS011;9574;47.282;9.640;2023-04-30T09:57:03;5.15;;;3.17;;
18883;SDS011;9574;47.282;9.640;2023-04-30T09:59:34;3.72;;;2.75;;
18883;SDS011;9574;47.282;9.640;2023-04-30T10:02:04;3.67;;;3.10;;
18883;SDS011;9574;47.282;9.640;2023-04-30T10:04:33;3.95;;;2.63;;
18883;SDS011;9574;47.282;9.640;2023-04-30T10:07:01;4.30;;;3.05;;
18883;SDS011;9574;47.282;9.640;2023-04-30T10:09:33;4.40;;;3.08;;
18883;SDS011;9574;47.282;9.640;2023-04-30T10:12:10;4.05;;;3.00;;
18883;SDS011;9574;47.282;9.640;2023-04-30T10:14:41;4.55;;;2.97;;
18883;SDS011;9574;47.282;9.640;2023-04-30T10:17:15;4.45;;;2.67;;
18883;SDS011;9574;47.282;9.640;2023-04-30T10:19:45;4.35;;;2.95;;
18883;SDS011;9574;47.282;9.640;2023-04-30T10:22:14;4.40;;;3.38;;
18883;SDS011;9574;47.282;9.640;2023-04-30T10:24:42;4.07;;;3.08;;
18883;SDS011;9574;47.282;9.640;2023-04-30T10:27:12;3.33;;;2.80;;
18883;SDS011;9574;47.282;9.640;2023-04-30T10:29:40;6.28;;;3.13;;
18883;SDS011;9574;47.282;9.640;2023-04-30T10:32:09;3.65;;;2.70;;
18883;SDS011;9574;47.282;9.640;2023-04-30T10:34:40;3.22;;;2.50;;
18883;SDS011;9574;47.282;9.640;2023-04-30T10:37:19;4.25;;;2.75;;
18883;SDS011;9574;47.282;9.640;2023-04-30T10:39:53;2.92;;;2.35;;
18883;SDS011;9574;47.282;9.640;2023-04-30T10:42:22;3.30;;;3.00;;
18883;SDS011;9574;47.282;9.640;2023-04-30T10:44:49;4.07;;;2.75;;
18883;SDS011;9574;47.282;9.640;2023-04-30T10:47:16;3.20;;;2.58;;
18883;SDS011;9574;47.282;9.640;2023-04-30T10:49:44;3.25;;;2.78;;
18883;SDS011;9574;47.282;9.640;2023-04-30T10:52:12;3.65;;;2.67;;
18883;SDS011;9574;47.282;9.640;2023-04-30T10:54:39;3.75;;;2.80;;
18883;SDS011;9574;47.282;9.640;2023-04-30T10:57:15;2.97;;;2.30;;
18883;SDS011;9574;47.282;9.640;2023-04-30T10:59:52;3.67;;;2.40;;
18883;SDS011;9574;47.282;9.640;2023-04-30T11:02:39;6.88;;;2.50;;
18883;SDS011;9574;47.282;9.640;2023-04-30T11:05:08;3.13;;;2.30;;
18883;SDS011;9574;47.282;9.640;2023-04-30T11:07:36;2.60;;;2.33;;
18883;SDS011;9574;47.282;9.640;2023-04-30T11:10:11;3.67;;;2.67;;
18883;SDS011;9574;47.282;9.640;2023-04-30T11:12:40;2.75;;;2.42;;
18883;SDS011;9574;47.282;9.640;2023-04-30T11:15:14;2.60;;;2.35;;
18883;SDS011;9574;47.282;9.640;2023-04-30T11:17:43;2.92;;;2.25;;
18883;SDS011;9574;47.282;9.640;2023-04-30T11:20:11;2.03;;;1.80;;
18883;SDS011;9574;47.282;9.640;2023-04-30T11:22:38;2.33;;;2.00;;
18883;SDS011;9574;47.282;9.640;2023-04-30T11:25:07;2.35;;;2.10;;
18883;SDS011;9574;47.282;9.640;2023-04-30T11:27:35;3.17;;;2.33;;
18883;SDS011;9574;47.282;9.640;2023-04-30T11:30:08;2.00;;;1.80;;
18883;SDS011;9574;47.282;9.640;2023-04-30T11:32:38;2.67;;;2.00;;
18883;SDS011;9574;47.282;9.640;2023-04-30T11:35:06;3.22;;;2.25;;
18883;SDS011;9574;47.282;9.640;2023-04-30T11:37:34;2.45;;;2.10;;
18883;SDS011;9574;47.282;9.640;2023-04-30T11:40:03;3.45;;;2.00;;
18883;SDS011;9574;47.282;9.640;2023-04-30T11:42:33;2.45;;;2.00;;
18883;SDS011;9574;47.282;9.640;2023-04-30T11:45:04;3.00;;;1.75;;
18883;SDS011;9574;47.282;9.640;2023-04-30T11:47:43;3.03;;;1.88;;
18883;SDS011;9574;47.282;9.640;2023-04-30T11:50:11;2.45;;;1.90;;
18883;SDS011;9574;47.282;9.640;2023-04-30T11:52:40;2.88;;;1.77;;
18883;SDS011;9574;47.282;9.640;2023-04-30T11:55:12;2.15;;;1.92;;
18883;SDS011;9574;47.282;9.640;2023-04-30T11:57:41;2.28;;;1.70;;
18883;SDS011;9574;47.282;9.640;2023-04-30T12:00:09;1.98;;;1.75;;
18883;SDS011;9574;47.282;9.640;2023-04-30T12:02:38;1.50;;;1.40;;
18883;SDS011;9574;47.282;9.640;2023-04-30T12:05:12;2.10;;;1.70;;
18883;SDS011;9574;47.282;9.640;2023-04-30T12:07:44;1.85;;;1.63;;
18883;SDS011;9574;47.282;9.640;2023-04-30T12:10:17;1.73;;;1.60;;
18883;SDS011;9574;47.282;9.640;2023-04-30T12:12:46;2.20;;;1.77;;
18883;SDS011;9574;47.282;9.640;2023-04-30T12:15:15;2.70;;;1.95;;
18883;SDS011;9574;47.282;9.640;2023-04-30T12:17:43;2.47;;;1.90;;
18883;SDS011;9574;47.282;9.640;2023-04-30T12:20:13;1.92;;;1.70;;
18883;SDS011;9574;47.282;9.640;2023-04-30T12:22:41;2.25;;;1.60;;
18883;SDS011;9574;47.282;9.640;2023-04-30T12:25:11;2.70;;;1.70;;
18883;SDS011;9574;47.282;9.640;2023-04-30T12:27:40;2.22;;;1.90;;
18883;SDS011;9574;47.282;9.640;2023-04-30T12:30:10;2.90;;;2.08;;
18883;SDS011;9574;47.282;9.640;2023-04-30T12:32:40;2.35;;;1.90;;
18883;SDS011;9574;47.282;9.640;2023-04-30T12:35:08;2.05;;;1.70;;
18883;SDS011;9574;47.282;9.640;2023-04-30T12:37:41;2.45;;;1.90;;
18883;SDS011;9574;47.282;9.640;2023-04-30T12:40:10;2.20;;;1.75;;
18883;SDS011;9574;47.282;9.640;2023-04-30T12:42:38;2.10;;;1.80;;
18883;SDS011;9574;47.282;9.640;2023-04-30T12:45:07;1.95;;;1.80;;
18883;SDS011;9574;47.282;9.640;2023-04-30T12:47:37;1.55;;;1.45;;
18883;SDS011;9574;47.282;9.640;2023-04-30T12:50:07;1.60;;;1.50;;
18883;SDS011;9574;47.282;9.640;2023-04-30T12:52:36;2.03;;;1.48;;
18883;SDS011;9574;47.282;9.640;2023-04-30T12:55:13;2.28;;;1.85;;
18883;SDS011;9574;47.282;9.640;2023-04-30T13:00:41;1.77;;;1.60;;
18883;SDS011;9574;47.282;9.640;2023-04-30T13:03:09;1.98;;;1.55;;
18883;SDS011;9574;47.282;9.640;2023-04-30T13:05:37;1.83;;;1.65;;
18883;SDS011;9574;47.282;9.640;2023-04-30T13:08:05;3.17;;;1.85;;
18883;SDS011;9574;47.282;9.640;2023-04-30T13:10:33;2.33;;;1.90;;
18883;SDS011;9574;47.282;9.640;2023-04-30T13:13:00;2.30;;;1.90;;
18883;SDS011;9574;47.282;9.640;2023-04-30T13:15:27;2.20;;;1.48;;
18883;SDS011;9574;47.282;9.640;2023-04-30T13:17:54;2.03;;;1.70;;
18883;SDS011;9574;47.282;9.640;2023-04-30T13:20:22;2.05;;;1.70;;
18883;SDS011;9574;47.282;9.640;2023-04-30T13:22:50;2.35;;;2.15;;
18883;SDS011;9574;47.282;9.640;2023-04-30T13:25:19;1.75;;;1.65;;
18883;SDS011;9574;47.282;9.640;2023-04-30T13:27:46;3.17;;;1.85;;
18883;SDS011;9574;47.282;9.640;2023-04-30T13:30:13;1.70;;;1.60;;
18883;SDS011;9574;47.282;9.640;2023-04-30T13:32:40;2.67;;;1.73;;
18883;SDS011;9574;47.282;9.640;2023-04-30T13:35:08;1.90;;;1.70;;
18883;SDS011;9574;47.282;9.640;2023-04-30T13:37:35;1.98;;;1.40;;
18883;SDS011;9574;47.282;9.640;2023-04-30T13:40:03;1.73;;;1.50;;
18883;SDS011;9574;47.282;9.640;2023-04-30T13:42:32;1.63;;;1.52;;
18883;SDS011;9574;47.282;9.640;2023-04-30T13:44:59;1.63;;;1.52;;
18883;SDS011;9574;47.282;9.640;2023-04-30T13:47:26;1.75;;;1.65;;
18883;SDS011;9574;47.282;9.640;2023-04-30T13:49:53;3.72;;;1.60;;
18883;SDS011;9574;47.282;9.640;2023-04-30T13:52:20;3.13;;;1.80;;
18883;SDS011;9574;47.282;9.640;2023-04-30T13:54:47;1.88;;;1.65;;
18883;SDS011;9574;47.282;9.640;2023-04-30T13:57:15;2.28;;;1.83;;
18883;SDS011;9574;47.282;9.640;2023-04-30T13:59:43;1.80;;;1.65;;
18883;SDS011;9574;47.282;9.640;2023-04-30T14:02:10;2.00;;;1.80;;
18883;SDS011;9574;47.282;9.640;2023-04-30T14:04:37;1.77;;;1.48;;
18883;SDS011;9574;47.282;9.640;2023-04-30T14:07:04;2.15;;;1.80;;
18883;SDS011;9574;47.282;9.640;2023-04-30T14:09:31;2.33;;;1.63;;
18883;SDS011;9574;47.282;9.640;2023-04-30T14:11:59;1.42;;;1.33;;
18883;SDS011;9574;47.282;9.640;2023-04-30T14:14:27;1.70;;;1.42;;
18883;SDS011;9574;47.282;9.640;2023-04-30T14:16:56;1.92;;;1.40;;
18883;SDS011;9574;47.282;9.640;2023-04-30T14:19:23;2.08;;;1.55;;
18883;SDS011;9574;47.282;9.640;2023-04-30T14:21:51;2.05;;;1.60;;
18883;SDS011;9574;47.282;9.640;2023-04-30T14:24:17;2.45;;;1.48;;
18883;SDS011;9574;47.282;9.640;2023-04-30T14:26:45;1.98;;;1.58;;
18883;SDS011;9574;47.282;9.640;2023-04-30T14:29:12;2.42;;;1.35;;
18883;SDS011;9574;47.282;9.640;2023-04-30T14:31:39;1.70;;;1.60;;
18883;SDS011;9574;47.282;9.640;2023-04-30T14:34:07;1.58;;;1.40;;
18883;SDS011;9574;47.282;9.640;2023-04-30T14:36:35;1.58;;;1.48;;
18883;SDS011;9574;47.282;9.640;2023-04-30T14:39:02;2.17;;;1.80;;
18883;SDS011;9574;47.282;9.640;2023-04-30T14:41:32;1.98;;;1.67;;
18883;SDS011;9574;47.282;9.640;2023-04-30T14:44:01;1.45;;;1.35;;
18883;SDS011;9574;47.282;9.640;2023-04-30T14:46:29;1.67;;;1.45;;
18883;SDS011;9574;47.282;9.640;2023-04-30T14:48:58;2.00;;;1.80;;
18883;SDS011;9574;47.282;9.640;2023-04-30T14:51:27;1.40;;;1.30;;
18883;SDS011;9574;47.282;9.640;2023-04-30T14:53:56;2.00;;;1.65;;
18883;SDS011;9574;47.282;9.640;2023-04-30T14:56:23;1.88;;;1.60;;
18883;SDS011;9574;47.282;9.640;2023-04-30T14:58:50;2.00;;;1.73;;
18883;SDS011;9574;47.282;9.640;2023-04-30T15:01:17;2.60;;;2.03;;
18883;SDS011;9574;47.282;9.640;2023-04-30T15:03:44;2.20;;;2.00;;
18883;SDS011;9574;47.282;9.640;2023-04-30T15:06:11;1.98;;;1.70;;
18883;SDS011;9574;47.282;9.640;2023-04-30T15:08:40;1.65;;;1.55;;
18883;SDS011;9574;47.282;9.640;2023-04-30T15:11:07;2.03;;;1.90;;
18883;SDS011;9574;47.282;9.640;2023-04-30T15:13:35;1.75;;;1.60;;